createdAt,value
2023-03-11T00:02:26.689Z,3.55
2023-03-11T00:05:13.060Z,3.61
2023-03-11T00:07:58.988Z,3.22
2023-03-11T00:10:45.023Z,3.07
2023-03-11T00:13:50.995Z,3.30
2023-03-11T00:16:36.750Z,3.30
2023-03-11T00:19:22.604Z,3.33
2023-03-11T00:22:08.479Z,3.37
2023-03-11T00:24:54.289Z,3.09
2023-03-11T00:27:40.345Z,3.22
2023-03-11T00:30:26.338Z,3.41
2023-03-11T00:33:12.142Z,3.54
2023-03-11T00:35:58.160Z,3.70
2023-03-11T00:38:43.939Z,3.51
2023-03-11T00:41:29.838Z,3.72
2023-03-11T00:44:15.855Z,3.61
2023-03-11T00:47:01.631Z,3.48
2023-03-11T00:49:47.501Z,3.68
2023-03-11T00:52:33.543Z,3.56
2023-03-11T00:55:19.421Z,3.65
2023-03-11T00:58:05.302Z,3.48
2023-03-11T01:00:51.070Z,3.73
2023-03-11T01:03:37.009Z,3.86
2023-03-11T01:06:23.476Z,3.65
2023-03-11T01:09:10.887Z,3.84
2023-03-11T01:11:56.865Z,3.93
2023-03-11T01:14:42.726Z,4.07
2023-03-11T01:17:28.547Z,3.93
2023-03-11T01:20:14.432Z,3.86
2023-03-11T01:23:00.272Z,3.95
2023-03-11T01:25:46.314Z,4.08
2023-03-11T01:28:32.174Z,4.10
2023-03-11T01:31:18.028Z,4.12
2023-03-11T01:34:03.817Z,4.02
2023-03-11T01:36:49.715Z,4.24
2023-03-11T01:39:35.494Z,4.15
2023-03-11T01:42:21.485Z,3.82
2023-03-11T01:45:07.291Z,4.21
2023-03-11T01:47:53.259Z,4.29
2023-03-11T01:50:39.115Z,4.20
2023-03-11T01:53:24.958Z,4.06
2023-03-11T01:56:10.681Z,3.70
2023-03-11T01:58:56.569Z,4.10
2023-03-11T02:01:42.373Z,3.98
2023-03-11T02:04:28.381Z,4.42
2023-03-11T02:07:14.168Z,4.36
2023-03-11T02:10:00.220Z,4.11
2023-03-11T02:12:46.054Z,4.34
2023-03-11T02:15:31.931Z,4.70
2023-03-11T02:18:17.974Z,4.60
2023-03-11T02:21:03.759Z,4.26
2023-03-11T02:23:51.556Z,4.13
2023-03-11T02:26:37.542Z,4.26
2023-03-11T02:29:23.396Z,4.44
2023-03-11T02:32:09.511Z,4.77
2023-03-11T02:34:55.548Z,5.05
2023-03-11T02:37:41.457Z,5.03
2023-03-11T02:40:27.349Z,5.12
2023-03-11T02:43:13.216Z,4.81
2023-03-11T02:45:58.978Z,4.86
2023-03-11T02:48:44.899Z,5.19
2023-03-11T02:51:30.614Z,5.05
2023-03-11T02:54:16.499Z,4.98
2023-03-11T02:57:02.363Z,4.96
2023-03-11T02:59:48.209Z,5.01
2023-03-11T03:02:34.088Z,5.10
2023-03-11T03:05:19.892Z,5.13
2023-03-11T03:08:05.793Z,5.23
2023-03-11T03:10:51.652Z,5.68
2023-03-11T03:13:37.414Z,5.53
2023-03-11T03:16:23.228Z,5.70
2023-03-11T03:19:09.167Z,5.96
2023-03-11T03:21:55.073Z,6.08
2023-03-11T03:24:40.945Z,5.91
2023-03-11T03:27:26.640Z,5.93
2023-03-11T03:30:12.569Z,6.12
2023-03-11T03:32:58.299Z,6.11
2023-03-11T03:35:44.145Z,6.16
2023-03-11T03:38:30.133Z,6.13
2023-03-11T03:41:16.020Z,6.44
2023-03-11T03:44:01.888Z,6.69
2023-03-11T03:46:47.727Z,6.28
2023-03-11T03:49:33.573Z,6.69
2023-03-11T03:52:19.402Z,6.62
2023-03-11T03:55:05.240Z,6.68
2023-03-11T03:57:53.053Z,6.97
2023-03-11T04:00:39.108Z,7.23
2023-03-11T04:03:24.886Z,7.34
2023-03-11T04:06:10.761Z,7.28
2023-03-11T04:08:56.671Z,7.11
2023-03-11T04:11:42.485Z,7.11
2023-03-11T04:14:28.496Z,6.88
2023-03-11T04:17:14.173Z,7.41
2023-03-11T04:20:00.015Z,7.79
2023-03-11T04:22:46.014Z,6.42
2023-03-11T04:25:33.949Z,5.90
2023-03-11T04:28:19.841Z,6.14
2023-03-11T04:31:05.881Z,5.70
2023-03-11T04:33:51.733Z,5.07
2023-03-11T04:36:37.736Z,4.85
2023-03-11T04:39:23.649Z,5.27
2023-03-11T04:42:09.443Z,6.07
2023-03-11T04:44:55.262Z,6.61
2023-03-11T04:47:41.246Z,6.60
2023-03-11T04:50:27.009Z,5.36
2023-03-11T04:53:12.959Z,5.20
2023-03-11T04:55:58.776Z,4.71
2023-03-11T04:58:44.619Z,4.20
2023-03-11T05:01:30.511Z,3.86
2023-03-11T05:04:16.343Z,3.96
2023-03-11T05:07:02.163Z,4.44
2023-03-11T05:09:47.976Z,4.95
2023-03-11T05:12:33.774Z,5.46
2023-03-11T05:15:19.721Z,4.93
2023-03-11T05:18:05.623Z,5.74
2023-03-11T05:20:51.685Z,6.24
2023-03-11T05:23:37.564Z,6.66
2023-03-11T05:26:23.501Z,6.64
2023-03-11T05:29:09.268Z,6.75
2023-03-11T05:31:55.375Z,7.21
2023-03-11T05:34:41.305Z,7.44
2023-03-11T05:37:27.336Z,7.45
2023-03-11T05:40:13.204Z,7.42
2023-03-11T05:42:59.245Z,7.47
2023-03-11T05:45:45.051Z,7.62
2023-03-11T05:48:30.995Z,7.17
2023-03-11T05:51:16.957Z,6.31
2023-03-11T05:54:02.761Z,6.52
2023-03-11T05:56:48.646Z,6.42
2023-03-11T05:59:34.603Z,5.81
2023-03-11T06:02:22.596Z,5.84
2023-03-11T06:05:09.309Z,5.88
2023-03-11T06:07:55.839Z,5.94
2023-03-11T06:10:41.693Z,6.56
2023-03-11T06:13:27.544Z,6.64
2023-03-11T06:16:13.459Z,6.80
2023-03-11T06:18:59.400Z,6.21
2023-03-11T06:21:45.325Z,6.07
2023-03-11T06:24:31.093Z,6.63
2023-03-11T06:27:17.026Z,6.82
2023-03-11T06:30:02.966Z,5.78
2023-03-11T06:32:48.888Z,5.10
2023-03-11T06:35:34.771Z,4.23
2023-03-11T06:38:20.566Z,4.09
2023-03-11T06:41:06.562Z,4.11
2023-03-11T06:43:52.569Z,3.65
2023-03-11T06:46:38.375Z,3.40
2023-03-11T06:49:24.202Z,3.51
2023-03-11T06:52:10.018Z,3.82
2023-03-11T06:54:55.912Z,3.59
2023-03-11T06:57:41.846Z,3.31
2023-03-11T07:00:27.621Z,3.40
2023-03-11T07:03:13.594Z,3.33
2023-03-11T07:05:59.431Z,3.84
2023-03-11T07:08:45.301Z,4.19
2023-03-11T07:11:31.265Z,4.26
2023-03-11T07:14:17.256Z,4.30
2023-03-11T07:17:03.120Z,4.46
2023-03-11T07:19:49.050Z,4.06
2023-03-11T07:22:34.926Z,4.12
2023-03-11T07:25:21.042Z,4.52
2023-03-11T07:28:06.837Z,4.67
2023-03-11T07:30:52.832Z,5.45
2023-03-11T07:33:39.188Z,5.92
2023-03-11T07:36:25.003Z,6.58
2023-03-11T07:39:10.919Z,7.09
2023-03-11T07:41:56.760Z,7.19
2023-03-11T07:44:42.600Z,7.45
2023-03-11T07:47:28.637Z,7.31
2023-03-11T07:50:16.438Z,7.19
2023-03-11T07:53:02.380Z,5.97
2023-03-11T07:55:48.117Z,5.32
2023-03-11T07:58:33.855Z,4.11
2023-03-11T08:01:19.639Z,4.48
2023-03-11T08:04:05.586Z,3.85
2023-03-11T08:06:51.444Z,3.01
2023-03-11T08:09:37.194Z,2.98
2023-03-11T08:12:23.045Z,2.73
2023-03-11T08:15:08.855Z,2.86
2023-03-11T08:17:54.809Z,2.57
2023-03-11T08:20:40.677Z,2.90
2023-03-11T08:23:26.756Z,2.55
2023-03-11T08:26:12.660Z,2.61
2023-03-11T08:28:58.439Z,2.22
2023-03-11T08:31:44.405Z,1.70
2023-03-11T08:34:30.373Z,2.67
2023-03-11T08:37:16.311Z,2.70
2023-03-11T08:40:02.042Z,3.13
2023-03-11T08:42:47.889Z,2.67
2023-03-11T08:45:33.809Z,1.93
2023-03-11T08:48:19.699Z,2.06
2023-03-11T08:51:05.621Z,2.54
2023-03-11T08:53:51.319Z,1.98
2023-03-11T08:56:39.779Z,1.95
2023-03-11T08:59:25.559Z,1.74
2023-03-11T09:02:11.550Z,1.61
2023-03-11T09:04:57.352Z,1.52
2023-03-11T09:07:43.301Z,1.49
2023-03-11T09:10:29.352Z,1.33
2023-03-11T09:13:15.191Z,1.26
2023-03-11T09:16:01.053Z,1.04
2023-03-11T09:18:49.143Z,1.05
2023-03-11T09:21:34.853Z,1.07
2023-03-11T09:24:20.781Z,1.14
2023-03-11T09:27:06.707Z,1.31
2023-03-11T09:29:52.536Z,1.53
2023-03-11T09:32:38.563Z,1.29
2023-03-11T09:35:24.416Z,1.38
2023-03-11T09:38:10.241Z,1.35
2023-03-11T09:40:56.231Z,1.48
2023-03-11T09:43:41.950Z,1.35
2023-03-11T09:46:27.946Z,1.36
2023-03-11T09:49:13.858Z,1.40
2023-03-11T09:51:59.774Z,1.36
2023-03-11T09:54:45.587Z,1.61
2023-03-11T09:57:31.281Z,1.67
2023-03-11T10:00:17.066Z,1.71
2023-03-11T10:03:03.096Z,1.69
2023-03-11T10:05:48.986Z,1.59
2023-03-11T10:08:34.925Z,1.62
2023-03-11T10:11:20.771Z,1.55
2023-03-11T10:14:06.547Z,1.56
2023-03-11T10:16:52.500Z,1.58
2023-03-11T10:19:38.302Z,1.38
2023-03-11T10:22:26.276Z,1.57
2023-03-11T10:25:12.220Z,1.63
2023-03-11T10:27:57.955Z,1.50
2023-03-11T10:30:43.739Z,1.78
2023-03-11T10:33:29.538Z,1.80
2023-03-11T10:36:15.301Z,1.69
2023-03-11T10:39:01.230Z,1.65
2023-03-11T10:41:47.000Z,1.77
2023-03-11T10:44:32.889Z,1.97
2023-03-11T10:47:18.874Z,1.90
2023-03-11T10:50:04.823Z,1.94
2023-03-11T10:52:50.883Z,2.30
2023-03-11T10:55:36.694Z,2.31
2023-03-11T10:58:22.743Z,2.19
2023-03-11T11:01:08.590Z,2.23
2023-03-11T11:03:54.686Z,2.21
2023-03-11T11:06:40.641Z,2.62
2023-03-11T11:09:27.030Z,2.82
2023-03-11T11:12:13.158Z,2.90
2023-03-11T11:14:59.108Z,3.08
2023-03-11T11:17:44.931Z,3.29
2023-03-11T11:20:30.925Z,3.76
2023-03-11T11:23:16.871Z,3.37
2023-03-11T11:26:02.757Z,3.14
2023-03-11T11:28:48.718Z,3.28
2023-03-11T11:31:34.947Z,3.40
2023-03-11T11:34:22.777Z,3.35
2023-03-11T11:37:09.425Z,3.80
2023-03-11T11:39:55.450Z,3.89
2023-03-11T11:42:41.293Z,4.07
2023-03-11T11:45:27.108Z,3.92
2023-03-11T11:48:12.860Z,3.89
2023-03-11T11:50:58.677Z,3.88
2023-03-11T11:53:44.743Z,4.62
2023-03-11T11:56:30.636Z,4.71
2023-03-11T11:59:16.560Z,4.38
2023-03-11T12:02:02.474Z,4.94
2023-03-11T12:04:48.454Z,4.97
2023-03-11T12:07:34.466Z,4.23
2023-03-11T12:10:23.685Z,5.07
2023-03-11T12:13:09.554Z,5.30
2023-03-11T12:15:55.497Z,5.48
2023-03-11T12:18:41.322Z,5.45
2023-03-11T12:21:27.354Z,5.78
2023-03-11T12:24:13.532Z,5.72
2023-03-11T12:26:59.437Z,5.74
2023-03-11T12:29:45.401Z,5.54
2023-03-11T12:32:31.423Z,5.05
2023-03-11T12:35:17.230Z,4.78
2023-03-11T12:38:03.071Z,5.19
2023-03-11T12:40:48.919Z,4.66
2023-03-11T12:43:34.854Z,5.26
2023-03-11T12:46:20.870Z,5.18
2023-03-11T12:49:06.731Z,5.20
2023-03-11T12:51:52.680Z,4.57
2023-03-11T12:54:38.510Z,4.71
2023-03-11T12:57:24.371Z,4.70
2023-03-11T13:00:10.320Z,4.84
2023-03-11T13:02:56.230Z,4.59
2023-03-11T13:05:42.198Z,5.00
2023-03-11T13:08:28.154Z,5.59
2023-03-11T13:11:14.080Z,5.59
2023-03-11T13:13:59.989Z,5.65
2023-03-11T13:16:45.882Z,6.54
2023-03-11T13:19:31.759Z,5.91
2023-03-11T13:22:17.702Z,5.13
2023-03-11T13:25:05.522Z,5.48
2023-03-11T13:27:51.339Z,5.55
2023-03-11T13:30:37.427Z,4.98
2023-03-11T13:33:23.270Z,5.70
2023-03-11T13:36:09.215Z,5.05
2023-03-11T13:38:55.168Z,4.85
2023-03-11T13:41:41.093Z,5.42
2023-03-11T13:44:26.940Z,5.08
2023-03-11T13:47:13.079Z,6.06
2023-03-11T13:49:59.195Z,6.36
2023-03-11T13:52:45.104Z,5.68
2023-03-11T13:55:30.961Z,5.75
2023-03-11T13:58:16.829Z,5.57
2023-03-11T14:01:02.897Z,5.51
2023-03-11T14:03:48.778Z,6.02
2023-03-11T14:06:34.796Z,5.46
2023-03-11T14:09:20.656Z,6.28
2023-03-11T14:12:06.640Z,6.58
2023-03-11T14:14:52.525Z,6.77
2023-03-11T14:17:38.366Z,6.91
2023-03-11T14:20:24.435Z,6.43
2023-03-11T14:23:12.220Z,6.79
2023-03-11T14:25:58.373Z,7.48
2023-03-11T14:28:45.194Z,7.65
2023-03-11T14:31:31.188Z,7.55
2023-03-11T14:34:17.014Z,7.69
2023-03-11T14:37:02.851Z,7.43
2023-03-11T14:39:51.154Z,7.02
2023-03-11T14:42:39.346Z,6.61
2023-03-11T14:45:25.362Z,6.58
2023-03-11T14:48:11.199Z,6.28
2023-03-11T14:50:57.100Z,6.47
2023-03-11T14:53:43.262Z,5.52
2023-03-11T14:56:29.043Z,6.30
2023-03-11T14:59:14.949Z,6.70
2023-03-11T15:02:01.034Z,6.69
2023-03-11T15:04:46.962Z,5.74
2023-03-11T15:07:34.627Z,6.65
2023-03-11T15:10:20.709Z,5.80
2023-03-11T15:13:06.482Z,6.15
2023-03-11T15:15:52.358Z,6.48
2023-03-11T15:18:38.138Z,6.86
2023-03-11T15:21:24.002Z,7.38
2023-03-11T15:24:10.012Z,7.83
2023-03-11T15:26:55.769Z,7.92
2023-03-11T15:29:41.663Z,7.76
2023-03-11T15:32:27.720Z,7.85
2023-03-11T15:35:13.593Z,8.02
2023-03-11T15:37:59.507Z,8.37
2023-03-11T15:40:46.081Z,8.48
2023-03-11T15:43:32.396Z,8.62
2023-03-11T15:46:18.465Z,8.05
2023-03-11T15:49:04.292Z,7.75
2023-03-11T15:51:50.198Z,7.78
2023-03-11T15:54:36.141Z,8.24
2023-03-11T15:57:21.973Z,7.71
2023-03-11T16:00:07.781Z,6.66
2023-03-11T16:02:53.613Z,6.00
2023-03-11T16:05:39.611Z,5.98
2023-03-11T16:08:27.173Z,5.98
2023-03-11T16:11:12.967Z,6.39
2023-03-11T16:13:58.982Z,6.09
2023-03-11T16:16:44.945Z,6.11
2023-03-11T16:19:30.765Z,6.45
2023-03-11T16:22:16.784Z,6.35
2023-03-11T16:25:02.860Z,6.29
2023-03-11T16:27:50.604Z,7.61
2023-03-11T16:30:36.394Z,7.95
2023-03-11T16:33:22.299Z,7.68
2023-03-11T16:36:08.275Z,8.20
2023-03-11T16:38:54.842Z,8.47
2023-03-11T16:41:40.775Z,7.97
2023-03-11T16:44:26.966Z,7.99
2023-03-11T16:47:13.107Z,8.49
2023-03-11T16:49:59.071Z,8.22
2023-03-11T16:52:45.396Z,8.66
2023-03-11T16:55:31.779Z,9.00
2023-03-11T16:58:17.783Z,9.37
2023-03-11T17:01:03.787Z,9.30
2023-03-11T17:03:49.630Z,9.04
2023-03-11T17:06:35.686Z,8.37
2023-03-11T17:09:21.862Z,8.74
2023-03-11T17:12:07.725Z,9.26
2023-03-11T17:14:53.651Z,9.72
2023-03-11T17:17:39.677Z,9.94
2023-03-11T17:20:25.610Z,10.17
2023-03-11T17:23:11.748Z,10.17
2023-03-11T17:25:58.739Z,9.82
2023-03-11T17:28:48.020Z,8.83
2023-03-11T17:31:34.130Z,7.68
2023-03-11T17:34:20.243Z,6.45
2023-03-11T17:37:06.535Z,6.50
2023-03-11T17:39:52.719Z,5.97
2023-03-11T17:42:39.037Z,5.89
2023-03-11T17:45:25.168Z,6.31
2023-03-11T17:48:11.392Z,6.94
2023-03-11T17:50:57.869Z,6.90
2023-03-11T17:53:45.755Z,7.22
2023-03-11T17:56:32.107Z,7.92
2023-03-11T17:59:18.101Z,8.36
2023-03-11T18:02:04.318Z,8.33
2023-03-11T18:04:50.416Z,8.70
2023-03-11T18:07:36.850Z,8.65
2023-03-11T18:10:22.809Z,8.16
2023-03-11T18:13:08.757Z,8.27
2023-03-11T18:15:54.890Z,8.13
2023-03-11T18:18:41.126Z,7.87
2023-03-11T18:21:27.112Z,8.28
2023-03-11T18:24:13.452Z,8.67
2023-03-11T18:26:59.677Z,8.93
2023-03-11T18:29:45.583Z,9.18
2023-03-11T18:32:31.534Z,9.42
2023-03-11T18:35:17.452Z,9.50
2023-03-11T18:38:03.381Z,9.56
2023-03-11T18:40:49.372Z,9.28
2023-03-11T18:43:35.432Z,9.26
2023-03-11T18:46:21.390Z,9.59
2023-03-11T18:49:07.326Z,9.15
2023-03-11T18:51:53.014Z,9.76
2023-03-11T18:54:39.017Z,9.56
2023-03-11T18:57:25.044Z,9.92
2023-03-11T19:00:12.909Z,10.03
2023-03-11T19:02:58.931Z,10.12
2023-03-11T19:05:45.109Z,10.32
2023-03-11T19:08:31.035Z,10.50
2023-03-11T19:11:16.927Z,10.70
2023-03-11T19:14:02.731Z,10.88
2023-03-11T19:16:48.729Z,11.02
2023-03-11T19:19:34.678Z,11.10
2023-03-11T19:22:20.671Z,10.95
2023-03-11T19:25:06.564Z,11.07
2023-03-11T19:27:52.403Z,10.74
2023-03-11T19:30:38.310Z,10.99
2023-03-11T19:33:24.717Z,11.04
2023-03-11T19:36:10.544Z,11.04
2023-03-11T19:38:56.495Z,10.95
2023-03-11T19:41:42.330Z,10.89
2023-03-11T19:44:28.107Z,11.04
2023-03-11T19:47:13.976Z,11.18
2023-03-11T19:49:59.986Z,10.57
2023-03-11T19:52:45.831Z,10.48
2023-03-11T19:55:33.835Z,10.55
2023-03-11T19:58:19.820Z,10.49
2023-03-11T20:01:05.789Z,10.45
2023-03-11T20:03:51.918Z,10.63
2023-03-11T20:06:37.834Z,10.25
2023-03-11T20:09:24.151Z,10.45
2023-03-11T20:12:10.122Z,10.55
2023-03-11T20:14:55.924Z,10.61
2023-03-11T20:17:41.864Z,10.67
2023-03-11T20:20:27.828Z,10.72
2023-03-11T20:23:13.676Z,10.51
2023-03-11T20:25:59.581Z,10.47
2023-03-11T20:28:45.578Z,10.45
2023-03-11T20:31:31.618Z,10.52
2023-03-11T20:34:17.817Z,10.55
2023-03-11T20:37:03.757Z,10.51
2023-03-11T20:39:49.822Z,10.44
2023-03-11T20:42:35.849Z,10.73
2023-03-11T20:45:22.324Z,10.67
2023-03-11T20:48:08.654Z,10.83
2023-03-11T20:50:54.588Z,10.74
2023-03-11T20:53:40.767Z,10.48
2023-03-11T20:56:26.838Z,10.49
2023-03-11T20:59:12.679Z,10.62
2023-03-11T21:01:58.651Z,10.11
2023-03-11T21:04:44.554Z,10.24
2023-03-11T21:07:32.328Z,9.96
2023-03-11T21:10:18.278Z,10.08
2023-03-11T21:13:04.434Z,10.18
2023-03-11T21:15:52.867Z,9.92
2023-03-11T21:18:39.081Z,9.80
2023-03-11T21:21:25.118Z,9.77
2023-03-11T21:24:11.254Z,9.39
2023-03-11T21:26:57.323Z,9.48
2023-03-11T21:29:43.619Z,9.41
2023-03-11T21:32:29.627Z,9.48
2023-03-11T21:35:21.004Z,9.46
2023-03-11T21:38:07.347Z,9.50
2023-03-11T21:40:53.153Z,9.77
2023-03-11T21:43:38.926Z,10.01
2023-03-11T21:46:25.093Z,9.82
2023-03-11T21:49:11.065Z,9.85
2023-03-11T21:51:57.238Z,10.09
2023-03-11T21:54:43.170Z,9.84
2023-03-11T21:57:29.046Z,9.61
2023-03-11T22:00:15.143Z,9.74
2023-03-11T22:03:01.344Z,9.65
2023-03-11T22:05:47.081Z,9.62
2023-03-11T22:08:33.007Z,9.94
2023-03-11T22:11:19.085Z,10.01
2023-03-11T22:14:07.163Z,9.58
2023-03-11T22:16:53.636Z,9.74
2023-03-11T22:19:39.744Z,9.49
2023-03-11T22:22:26.137Z,9.59
2023-03-11T22:25:12.460Z,9.61
2023-03-11T22:27:58.282Z,9.57
2023-03-11T22:30:44.075Z,9.73
2023-03-11T22:33:29.919Z,9.74
2023-03-11T22:36:16.944Z,9.52
2023-03-11T22:39:02.744Z,9.73
2023-03-11T22:41:48.574Z,9.61
2023-03-11T22:44:34.409Z,9.15
2023-03-11T22:47:20.334Z,8.75
2023-03-11T22:50:06.139Z,8.95
2023-03-11T22:52:52.091Z,8.95
2023-03-11T22:55:38.044Z,8.72
2023-03-11T22:58:24.102Z,8.05
2023-03-11T23:01:10.043Z,7.88
2023-03-11T23:03:55.972Z,7.47
2023-03-11T23:06:41.823Z,7.94
2023-03-11T23:09:27.824Z,8.34
2023-03-11T23:12:13.746Z,8.61
2023-03-11T23:15:01.577Z,8.73
2023-03-11T23:17:47.672Z,9.12
2023-03-11T23:20:33.421Z,9.07
2023-03-11T23:23:19.504Z,9.37
2023-03-11T23:26:05.314Z,9.19
2023-03-11T23:28:51.277Z,9.22
2023-03-11T23:31:37.132Z,9.16
2023-03-11T23:34:22.896Z,9.25
2023-03-11T23:37:08.705Z,9.53
2023-03-11T23:39:54.513Z,9.54
2023-03-11T23:42:40.269Z,9.40
2023-03-11T23:45:26.164Z,9.50
2023-03-11T23:48:12.074Z,9.52
2023-03-11T23:50:58.047Z,9.41
2023-03-11T23:53:44.016Z,9.68
2023-03-11T23:56:29.905Z,9.84
2023-03-11T23:59:15.719Z,9.39
